Nearby METAR Reports

 

KCXY - Harrisburg, Pennsylvania, USA
Distance from station: E 9mi, 14km
Updated: Sat, 25-Jan-2020 2:56pm EST
Overcast
Overcast
 Wind from WNW
Wind: WNW 8 mph , 13 km/h
Temperature: 46°F , 8°C
Wind Chill: 42°F , 6°C
Dew Point: 39°F , 4°C
Humidity: 76%
Barometer: 29.82 inHg , 1009.8 hPa
Clouds: Overcast
Visibility: 10 miles , 16 km
Cloud details: Overcast 1400 ft
2020/01/25 19:56 KCXY 251956Z 30007KT 10SM OVC014 08/04 A2982 RMK AO2 SLP101 T00780044
KMDT - Middletown, Pennsylvania, USA
Distance from station: E 13mi, 21km
Updated: Sat, 25-Jan-2020 3:38pm EST
Overcast
Overcast
 Wind from NW
Wind: NW 6 mph , 9 km/h
Temperature: 45°F , 7°C
Wind Chill: 42°F , 6°C
Dew Point: 39°F , 4°C
Humidity: 81%
Barometer: 29.82 inHg , 1009.8 hPa
Clouds: Overcast
Visibility: 10 miles , 16 km
Cloud details: Partly cloudy 1200 ft
Mostly cloudy 2500 ft
Overcast 8500 ft
2020/01/25 20:38 KMDT 252038Z 31005KT 10SM SCT012 BKN025 OVC085 07/04 A2982 RMK AO2 T00720044
 
KTHV - York, Pennsylvania, USA
Distance from station: SSE 22mi, 36km
Updated: Sat, 25-Jan-2020 3:36pm EST
Mostly cloudy
Mostly cloudy
 Wind from WNW
Wind: WNW 12 mph , 19 km/h, Gust: 18 mph , 30 km/h
Temperature: 46°F , 8°C
Wind Chill: 40°F , 4°C
Dew Point: 37°F , 3°C
Humidity: 71%
Barometer: 29.82 inHg , 1009.8 hPa
Clouds: Mostly cloudy
Visibility: 10 miles , 16 km
Cloud details: Few Clouds 1600 ft
Partly cloudy 2100 ft
Mostly cloudy 4900 ft
2020/01/25 20:36 KTHV 252036Z AUTO 29010G16KT 10SM FEW016 SCT021 BKN049 08/03 A2982 RMK AO2 T00830033 $
KMUI - Muir Aaf/Indiant, Pennsylvania, USA
Distance from station: ENE 27mi, 44km
Updated: Sat, 25-Jan-2020 3:29pm EST
Overcast
Overcast
 Wind from WNW
Wind: WNW 6 mph , 9 km/h, Gust: 16 mph , 26 km/h
Temperature: 43°F , 6°C
Wind Chill: 39°F , 4°C
Dew Point: 39°F , 4°C
Humidity: 87%
Barometer: 29.80 inHg , 1009.1 hPa
Clouds: Overcast
Visibility: 10 miles , 16 km
Cloud details: Overcast 1000 ft
2020/01/25 20:29 KMUI 252029Z AUTO 29005G14KT 10SM OVC010 06/04 A2980 RMK AO2 SLP097
 
KLNS - Lancaster, Pennsylvania, USA
Distance from station: E 38mi, 62km
Updated: Sat, 25-Jan-2020 3:21pm EST
Overcast
Overcast
 Wind from W
Wind: W 9 mph , 15 km/h
Temperature: 45°F , 7°C
Wind Chill: 40°F , 4°C
Dew Point: 39°F , 4°C
Humidity: 81%
Barometer: 29.81 inHg , 1009.5 hPa
Clouds: Overcast
Visibility: 10 miles , 16 km
Cloud details: Mostly cloudy 1000 ft
Overcast 1500 ft
2020/01/25 20:21 KLNS 252021Z 28008KT 10SM BKN010 OVC015 07/04 A2981 RMK AO2 CIG 008V012 T00720044
KRYT - Fountain Dale, Pennsylvania, USA
Distance from station: SSW 40mi, 65km
Updated: Mon, 13-Nov-2017 7:53am EST
NOT Current
Mist, Overcast
Mist, Overcast
 Wind from calm
Wind: Calm
Temperature: 37°F , 3°C
Dew Point: 34°F , 1°C
Humidity: 87%
Barometer: 30.31 inHg , 1026.4 hPa
Summary: Mist
Clouds: Overcast
Visibility: 5 miles , 8 km
Cloud details: Overcast 700 ft
2017/11/13 12:53 KRYT 131253Z AUTO 00000KT 5SM BR OVC007 03/01 A3031 RMK AO2 SLP275 T00280011 TSNO $
 
KSEG - Selinsgrove, Pennsylvania, USA
Distance from station: N 42mi, 67km
Updated: Sat, 25-Jan-2020 3:45pm EST
unable to load KSEG data RC=
unable to load KSEG data RC=
 
KDMW - Carroll Cnty, Maryland, USA
Distance from station: S 43mi, 69km
Updated: Sat, 25-Jan-2020 3:25pm EST
Mostly cloudy
Mostly cloudy
 Wind from NW
Wind: NW 8 mph , 13 km/h, Gust: 16 mph , 26 km/h
Temperature: 46°F , 8°C
Wind Chill: 42°F , 6°C
Dew Point: 43°F , 6°C
Humidity: 87%
Barometer: 29.82 inHg , 1009.8 hPa
Clouds: Mostly cloudy
Visibility: 10 miles , 16 km
Cloud details: Mostly cloudy 6500 ft
2020/01/25 20:25 KDMW 252025Z AUTO 31007G14KT 10SM BKN065 08/06 A2982 RMK AO2 LTG DSNT SE
 
KRSP - Camp David, Maryland, USA
Distance from station: SSW 46mi, 74km
Updated: Sat, 18-May-2019 1:54pm EDT
NOT Current

 
2019/05/18 17:54 KRSP 181754Z AUTO VRB04KTLS21/16 A3004 RMK AO2 SLP168 T02110161 10228 20172 $